Patriarch — WBN3014 — position and weather

sailwx.info

Track history (hours):
 
Tides and Currents Weather Stations Pressure Air Temp Water Temp Dewpoint Dewpoint Depression Visibility Wind Speed Wind Dir Waves Ship Positions

Patriarch

Owner: CROWLEY PUERTO RICO SERVICES INC, Jacksonville, FL. More information available from US FCC via Universal Licensing System and Coast Guard Vessel Documentation Center.

Last reported at 2017-Mar-26 04:17 UTC. Time now 2017-Mar-26 10:59 UTC.
Position N 18°29' W 066°08'.

Length 46 m; draft 4.6 m.

Type: Towing. MMSI: 366766940.

Date/timePositionNaut miles runAvg speedWind from/ knotsBaromVisibWave heightAir tempDewpointWater temp
2017-Mar-26 04:17N 18°29' W 066°08'3 1.4
2017-Mar-26 02:23N 18°27' W 066°06'  
2017-Mar-18 19:33N 39°24' W 075°29'7 7.1
2017-Mar-18 18:33N 39°30' W 075°33'7 7.4
2017-Mar-18 17:33N 39°37' W 075°35'9 8.7
2017-Mar-18 16:33N 39°45' W 075°30'1 0.0
2017-Mar-17 08:33N 39°44' W 075°30'10 9.8
2017-Mar-17 07:33N 39°34' W 075°33'1010.0
2017-Mar-17 06:32N 39°24' W 075°30'  
Track history (hours):
 
Tides and Currents Weather Stations Pressure Air Temp Water Temp Dewpoint Dewpoint Depression Visibility Wind Speed Wind Dir Waves Ship Positions

Patriarch

Owner: CROWLEY PUERTO RICO SERVICES INC, Jacksonville, FL. More information available from US FCC via Universal Licensing System and Coast Guard Vessel Documentation Center.

Last reported at 2017-Mar-26 04:17 UTC. Time now 2017-Mar-26 10:59 UTC.
Position N 18°29' W 066°08'.

Length 46 m; draft 4.6 m.

Type: Towing. MMSI: 366766940.

Date/timePositionNaut miles runAvg speedWind from/ knotsBaromVisibWave heightAir tempDewpointWater temp
2017-Mar-26 04:17N 18°29' W 066°08'3 1.4
2017-Mar-26 02:23N 18°27' W 066°06'  
2017-Mar-18 19:33N 39°24' W 075°29'7 7.1
2017-Mar-18 18:33N 39°30' W 075°33'7 7.4
2017-Mar-18 17:33N 39°37' W 075°35'9 8.7
2017-Mar-18 16:33N 39°45' W 075°30'1 0.0
2017-Mar-17 08:33N 39°44' W 075°30'10 9.8
2017-Mar-17 07:33N 39°34' W 075°33'1010.0
2017-Mar-17 06:32N 39°24' W 075°30'  

Dump ship's entire track history